Flight Track Log - Related Links

Times and Time Zones

All times are in EDT time to prevent confusion due to time zone crossing. See the N502QS flight status page for this flight to view local times or setup timezone preferences in your user account.

Time Position Orientation Groundspeed Altitude Reporting Facility
EDT Latitude Longitude Course Direction KTS MPH feet Rate Location/Type
Mon 05:30:23 PM 28.5894 -99.6658 46° Northeast 273 314 3,400  Level Houston Center
Mon 05:31:25 PM 28.6472 -99.6106 40° Northeast 273 314 7,400 3,629 Climbing Houston Center
Mon 05:32:27 PM 28.7061 -99.5433 45° Northeast 298 343 10,900 1,742 Climbing Houston Center
Mon 05:33:29 PM 28.7469 -99.4078 71° East 383 441 11,000 48 Climbing Houston Center
Mon 05:34:00 PM 28.7627 -99.5134 47° Northeast  Level FlightAware Approximate
Mon 05:34:31 PM 28.7833 -99.2958 70° East 382 440 11,000  Level Houston Center
Mon 05:35:33 PM 28.8219 -99.1808 69° East 388 447 10,900  Descending Houston Center
Mon 05:36:39 PM 28.8675 -99.0456 69° East 400 460 11,000 49 Climbing Houston Center
Mon 05:37:36 PM 28.9053 -98.9378 68° East 393 452 11,000 -403 Level Houston Center
Mon 05:38:38 PM 28.9789 -98.8375 50° Northeast 384 442 10,200 -484 Descending Houston Center
Mon 05:39:40 PM 29.0589 -98.7658 38° Northeast 366 421 10,000 -191 Descending Houston Center
Mon 05:40:12 PM 29.0997 -98.7297 38° Northeast 359 413 9,900 -484 Descending Houston Center
Mon 05:40:42 PM 29.1389 -98.7025 31° Northeast 350 403 9,500 -1,180 Descending Houston Center
Mon 05:41:13 PM 29.1794 -98.6822 24° Northeast 306 352 8,700 -1,742 Descending Houston Center
Mon 05:41:44 PM 29.2247 -98.6800 North 302 348 7,700 -1,742 Descending Houston Center
Mon 05:42:46 PM 29.3067 -98.6847 357° North 295 339 6,000 -823 Descending Houston Center
Mon 05:43:48 PM 29.3828 -98.6892 357° North 251 289 6,000 -435 Level Houston Center
Mon 05:44:50 PM 29.4478 -98.6931 357° North 235 270 5,100 -976 Descending Houston Center
Mon 05:45:51 PM 29.5125 -98.6975 357° North 232 267 4,000 -537 Descending Houston Center
Mon 05:46:53 PM 29.5736 -98.6711 21° North 227 261 4,000  Level Houston Center
Mon 05:47:55 PM 29.6183 -98.6358 34° Northeast 198 228 4,000 -290 Level Houston Center
Mon 05:48:57 PM 29.6208 -98.5914 86° East 149 171 3,400 -774 Descending Houston Center
Mon 05:49:59 PM 29.5978 -98.5556 126° Southeast 132 152 2,400 -780 Descending Houston Center
Mon 05:51:00 PM 29.5736 -98.5250 132° Southeast 129 148 1,800 -634 Descending Houston Center
Mon 05:52:02 PM 29.5508 -98.4942 130° Southeast 120 138 1,100 -677 Descending Houston Center

Login

Don't have an account? Register now (free) for customized features, flight alerts, and more!